sensor_id;sensor_type;location;lat;lon;timestamp;P1;durP1;ratioP1;P2;durP2;ratioP2
46721;SDS011;32455;43.430;23.136;2022-09-09T00:07:25;7.88;;;7.00;;
46721;SDS011;32455;43.430;23.136;2022-09-09T00:10:48;8.38;;;7.50;;
46721;SDS011;32455;43.430;23.136;2022-09-09T00:13:48;7.13;;;6.53;;
46721;SDS011;32455;43.430;23.136;2022-09-09T00:16:36;11.07;;;7.40;;
46721;SDS011;32455;43.430;23.136;2022-09-09T00:19:50;8.38;;;6.97;;
46721;SDS011;32455;43.430;23.136;2022-09-09T00:22:52;7.82;;;7.13;;
46721;SDS011;32455;43.430;23.136;2022-09-09T00:26:14;8.45;;;7.55;;
46721;SDS011;32455;43.430;23.136;2022-09-09T00:31:59;7.90;;;7.10;;
46721;SDS011;32455;43.430;23.136;2022-09-09T00:34:55;7.53;;;6.82;;
46721;SDS011;32455;43.430;23.136;2022-09-09T00:37:47;7.75;;;6.68;;
46721;SDS011;32455;43.430;23.136;2022-09-09T00:40:35;7.80;;;6.95;;
46721;SDS011;32455;43.430;23.136;2022-09-09T00:43:32;7.63;;;6.93;;
46721;SDS011;32455;43.430;23.136;2022-09-09T00:46:32;8.15;;;7.35;;
46721;SDS011;32455;43.430;23.136;2022-09-09T00:55:45;8.55;;;7.65;;
46721;SDS011;32455;43.430;23.136;2022-09-09T00:58:32;8.20;;;7.43;;
46721;SDS011;32455;43.430;23.136;2022-09-09T01:01:18;8.15;;;7.35;;
46721;SDS011;32455;43.430;23.136;2022-09-09T01:04:05;10.13;;;7.82;;
46721;SDS011;32455;43.430;23.136;2022-09-09T01:07:04;9.15;;;7.88;;
46721;SDS011;32455;43.430;23.136;2022-09-09T01:10:00;7.80;;;7.00;;
46721;SDS011;32455;43.430;23.136;2022-09-09T01:12:58;8.32;;;7.55;;
46721;SDS011;32455;43.430;23.136;2022-09-09T01:15:50;8.45;;;7.65;;
46721;SDS011;32455;43.430;23.136;2022-09-09T01:18:43;8.30;;;7.53;;
46721;SDS011;32455;43.430;23.136;2022-09-09T01:21:43;9.13;;;8.05;;
46721;SDS011;32455;43.430;23.136;2022-09-09T01:24:48;8.70;;;7.68;;
46721;SDS011;32455;43.430;23.136;2022-09-09T01:27:49;8.27;;;7.43;;
46721;SDS011;32455;43.430;23.136;2022-09-09T01:30:40;8.23;;;7.05;;
46721;SDS011;32455;43.430;23.136;2022-09-09T01:33:26;8.77;;;7.75;;
46721;SDS011;32455;43.430;23.136;2022-09-09T01:36:19;8.68;;;7.88;;
46721;SDS011;32455;43.430;23.136;2022-09-09T01:39:11;8.40;;;7.57;;
46721;SDS011;32455;43.430;23.136;2022-09-09T01:41:58;8.85;;;7.13;;
46721;SDS011;32455;43.430;23.136;2022-09-09T01:44:44;9.52;;;8.00;;
46721;SDS011;32455;43.430;23.136;2022-09-09T01:47:29;8.00;;;7.20;;
46721;SDS011;32455;43.430;23.136;2022-09-09T01:50:15;12.45;;;7.30;;
46721;SDS011;32455;43.430;23.136;2022-09-09T01:53:02;9.80;;;8.25;;
46721;SDS011;32455;43.430;23.136;2022-09-09T01:55:52;12.48;;;7.93;;
46721;SDS011;32455;43.430;23.136;2022-09-09T02:02:18;8.55;;;7.75;;
46721;SDS011;32455;43.430;23.136;2022-09-09T02:08:25;11.13;;;8.23;;
46721;SDS011;32455;43.430;23.136;2022-09-09T02:11:24;9.50;;;7.93;;
46721;SDS011;32455;43.430;23.136;2022-09-09T02:14:16;8.77;;;7.90;;
46721;SDS011;32455;43.430;23.136;2022-09-09T02:17:09;8.75;;;7.85;;
46721;SDS011;32455;43.430;23.136;2022-09-09T02:19:57;9.50;;;8.50;;
46721;SDS011;32455;43.430;23.136;2022-09-09T02:22:57;8.40;;;7.65;;
46721;SDS011;32455;43.430;23.136;2022-09-09T02:25:44;9.20;;;8.07;;
46721;SDS011;32455;43.430;23.136;2022-09-09T02:28:31;10.32;;;7.82;;
46721;SDS011;32455;43.430;23.136;2022-09-09T02:31:17;8.73;;;7.90;;
46721;SDS011;32455;43.430;23.136;2022-09-09T02:34:05;8.85;;;8.05;;
46721;SDS011;32455;43.430;23.136;2022-09-09T02:36:54;10.57;;;7.93;;
46721;SDS011;32455;43.430;23.136;2022-09-09T02:39:43;8.30;;;7.50;;
46721;SDS011;32455;43.430;23.136;2022-09-09T02:42:29;8.68;;;7.47;;
46721;SDS011;32455;43.430;23.136;2022-09-09T02:45:18;9.85;;;7.32;;
46721;SDS011;32455;43.430;23.136;2022-09-09T02:51:18;9.57;;;7.90;;
46721;SDS011;32455;43.430;23.136;2022-09-09T02:54:29;9.50;;;8.07;;
46721;SDS011;32455;43.430;23.136;2022-09-09T02:57:23;11.02;;;7.90;;
46721;SDS011;32455;43.430;23.136;2022-09-09T03:00:14;8.07;;;7.28;;
46721;SDS011;32455;43.430;23.136;2022-09-09T03:03:00;9.15;;;8.20;;
46721;SDS011;32455;43.430;23.136;2022-09-09T03:05:49;8.48;;;7.65;;
46721;SDS011;32455;43.430;23.136;2022-09-09T03:08:34;11.00;;;8.05;;
46721;SDS011;32455;43.430;23.136;2022-09-09T03:11:20;9.02;;;8.05;;
46721;SDS011;32455;43.430;23.136;2022-09-09T03:14:06;10.77;;;7.95;;
46721;SDS011;32455;43.430;23.136;2022-09-09T03:16:53;9.13;;;7.90;;
46721;SDS011;32455;43.430;23.136;2022-09-09T03:19:40;11.40;;;8.52;;
46721;SDS011;32455;43.430;23.136;2022-09-09T03:22:25;9.40;;;7.78;;
46721;SDS011;32455;43.430;23.136;2022-09-09T03:25:09;11.18;;;7.80;;
46721;SDS011;32455;43.430;23.136;2022-09-09T03:27:54;12.40;;;8.68;;
46721;SDS011;32455;43.430;23.136;2022-09-09T03:30:40;10.75;;;8.77;;
46721;SDS011;32455;43.430;23.136;2022-09-09T03:33:26;10.32;;;7.72;;
46721;SDS011;32455;43.430;23.136;2022-09-09T03:36:13;8.40;;;7.60;;
46721;SDS011;32455;43.430;23.136;2022-09-09T03:39:01;11.70;;;8.68;;
46721;SDS011;32455;43.430;23.136;2022-09-09T03:41:48;10.18;;;8.23;;
46721;SDS011;32455;43.430;23.136;2022-09-09T03:44:33;11.15;;;8.52;;
46721;SDS011;32455;43.430;23.136;2022-09-09T03:47:19;12.93;;;9.10;;
46721;SDS011;32455;43.430;23.136;2022-09-09T03:50:09;9.35;;;8.43;;
46721;SDS011;32455;43.430;23.136;2022-09-09T03:52:55;9.75;;;8.75;;
46721;SDS011;32455;43.430;23.136;2022-09-09T03:55:43;9.45;;;8.45;;
46721;SDS011;32455;43.430;23.136;2022-09-09T03:58:34;10.20;;;8.55;;
46721;SDS011;32455;43.430;23.136;2022-09-09T04:01:20;9.93;;;8.50;;
46721;SDS011;32455;43.430;23.136;2022-09-09T04:04:05;9.13;;;8.20;;
46721;SDS011;32455;43.430;23.136;2022-09-09T04:06:51;9.93;;;9.02;;
46721;SDS011;32455;43.430;23.136;2022-09-09T04:09:37;10.57;;;8.60;;
46721;SDS011;32455;43.430;23.136;2022-09-09T04:12:22;10.63;;;9.27;;
46721;SDS011;32455;43.430;23.136;2022-09-09T04:15:08;10.82;;;8.90;;
46721;SDS011;32455;43.430;23.136;2022-09-09T04:17:55;9.98;;;8.63;;
46721;SDS011;32455;43.430;23.136;2022-09-09T04:20:40;13.43;;;9.30;;
46721;SDS011;32455;43.430;23.136;2022-09-09T04:23:27;10.57;;;8.45;;
46721;SDS011;32455;43.430;23.136;2022-09-09T04:26:14;12.82;;;8.90;;
46721;SDS011;32455;43.430;23.136;2022-09-09T04:28:59;9.55;;;8.57;;
46721;SDS011;32455;43.430;23.136;2022-09-09T04:31:45;10.30;;;9.20;;
46721;SDS011;32455;43.430;23.136;2022-09-09T04:34:31;9.75;;;8.40;;
46721;SDS011;32455;43.430;23.136;2022-09-09T04:37:17;11.00;;;9.05;;
46721;SDS011;32455;43.430;23.136;2022-09-09T04:40:03;8.77;;;7.97;;
46721;SDS011;32455;43.430;23.136;2022-09-09T04:42:50;10.65;;;8.70;;
46721;SDS011;32455;43.430;23.136;2022-09-09T04:45:36;9.40;;;8.18;;
46721;SDS011;32455;43.430;23.136;2022-09-09T04:48:22;11.00;;;8.32;;
46721;SDS011;32455;43.430;23.136;2022-09-09T04:51:10;10.65;;;8.25;;
46721;SDS011;32455;43.430;23.136;2022-09-09T04:53:57;10.05;;;8.38;;
46721;SDS011;32455;43.430;23.136;2022-09-09T04:56:44;10.18;;;8.35;;
46721;SDS011;32455;43.430;23.136;2022-09-09T04:59:29;11.20;;;8.75;;
46721;SDS011;32455;43.430;23.136;2022-09-09T05:02:15;9.75;;;8.75;;
46721;SDS011;32455;43.430;23.136;2022-09-09T05:05:00;11.32;;;9.32;;
46721;SDS011;32455;43.430;23.136;2022-09-09T05:07:45;9.30;;;8.30;;
46721;SDS011;32455;43.430;23.136;2022-09-09T05:10:32;9.18;;;8.23;;
46721;SDS011;32455;43.430;23.136;2022-09-09T05:13:18;8.93;;;7.97;;
46721;SDS011;32455;43.430;23.136;2022-09-09T05:16:04;9.75;;;8.18;;
46721;SDS011;32455;43.430;23.136;2022-09-09T05:18:49;10.13;;;8.57;;
46721;SDS011;32455;43.430;23.136;2022-09-09T05:21:36;9.55;;;8.55;;
46721;SDS011;32455;43.430;23.136;2022-09-09T05:24:21;8.68;;;7.82;;
46721;SDS011;32455;43.430;23.136;2022-09-09T05:27:08;13.15;;;8.88;;
46721;SDS011;32455;43.430;23.136;2022-09-09T05:29:56;11.80;;;8.95;;
46721;SDS011;32455;43.430;23.136;2022-09-09T05:32:43;11.27;;;8.90;;
46721;SDS011;32455;43.430;23.136;2022-09-09T05:35:28;10.30;;;9.30;;
46721;SDS011;32455;43.430;23.136;2022-09-09T05:38:14;9.52;;;8.60;;
46721;SDS011;32455;43.430;23.136;2022-09-09T05:41:00;9.60;;;8.60;;
46721;SDS011;32455;43.430;23.136;2022-09-09T05:43:47;11.88;;;9.27;;
46721;SDS011;32455;43.430;23.136;2022-09-09T05:46:33;10.48;;;8.57;;
46721;SDS011;32455;43.430;23.136;2022-09-09T05:49:19;10.32;;;8.98;;
46721;SDS011;32455;43.430;23.136;2022-09-09T05:52:04;9.77;;;8.77;;
46721;SDS011;32455;43.430;23.136;2022-09-09T05:54:51;9.90;;;8.93;;
46721;SDS011;32455;43.430;23.136;2022-09-09T05:57:37;10.55;;;9.45;;
46721;SDS011;32455;43.430;23.136;2022-09-09T06:00:23;11.48;;;9.23;;
46721;SDS011;32455;43.430;23.136;2022-09-09T06:03:10;9.55;;;8.57;;
46721;SDS011;32455;43.430;23.136;2022-09-09T06:06:00;9.65;;;8.65;;
46721;SDS011;32455;43.430;23.136;2022-09-09T06:08:53;8.93;;;7.80;;
46721;SDS011;32455;43.430;23.136;2022-09-09T06:11:41;9.23;;;8.25;;
46721;SDS011;32455;43.430;23.136;2022-09-09T06:14:27;11.02;;;8.18;;
46721;SDS011;32455;43.430;23.136;2022-09-09T06:17:12;12.85;;;8.25;;
46721;SDS011;32455;43.430;23.136;2022-09-09T06:19:57;10.85;;;7.60;;
46721;SDS011;32455;43.430;23.136;2022-09-09T06:22:42;10.65;;;6.95;;
46721;SDS011;32455;43.430;23.136;2022-09-09T06:25:31;8.90;;;7.40;;
46721;SDS011;32455;43.430;23.136;2022-09-09T06:28:18;6.63;;;6.03;;
46721;SDS011;32455;43.430;23.136;2022-09-09T06:31:05;7.57;;;6.63;;
46721;SDS011;32455;43.430;23.136;2022-09-09T06:33:54;6.38;;;5.80;;
46721;SDS011;32455;43.430;23.136;2022-09-09T06:36:40;13.00;;;6.10;;
46721;SDS011;32455;43.430;23.136;2022-09-09T06:39:26;8.10;;;7.30;;
46721;SDS011;32455;43.430;23.136;2022-09-09T06:42:11;7.55;;;6.75;;
46721;SDS011;32455;43.430;23.136;2022-09-09T06:44:56;8.52;;;6.82;;
46721;SDS011;32455;43.430;23.136;2022-09-09T06:47:41;9.65;;;6.82;;
46721;SDS011;32455;43.430;23.136;2022-09-09T06:50:26;7.85;;;6.00;;
46721;SDS011;32455;43.430;23.136;2022-09-09T06:53:12;9.77;;;5.60;;
46721;SDS011;32455;43.430;23.136;2022-09-09T06:56:01;8.35;;;5.65;;
46721;SDS011;32455;43.430;23.136;2022-09-09T06:59:09;7.95;;;5.75;;
46721;SDS011;32455;43.430;23.136;2022-09-09T07:01:56;6.20;;;5.40;;
46721;SDS011;32455;43.430;23.136;2022-09-09T07:04:42;7.55;;;4.60;;
46721;SDS011;32455;43.430;23.136;2022-09-09T07:07:29;6.30;;;5.68;;
46721;SDS011;32455;43.430;23.136;2022-09-09T07:10:15;8.85;;;6.15;;
46721;SDS011;32455;43.430;23.136;2022-09-09T07:13:00;8.95;;;6.05;;
46721;SDS011;32455;43.430;23.136;2022-09-09T07:15:47;7.45;;;6.53;;
46721;SDS011;32455;43.430;23.136;2022-09-09T07:18:32;6.35;;;5.75;;
46721;SDS011;32455;43.430;23.136;2022-09-09T07:21:18;9.13;;;6.22;;
46721;SDS011;32455;43.430;23.136;2022-09-09T07:24:05;7.47;;;6.13;;
46721;SDS011;32455;43.430;23.136;2022-09-09T07:26:52;7.25;;;5.93;;
46721;SDS011;32455;43.430;23.136;2022-09-09T07:29:37;7.93;;;6.05;;
46721;SDS011;32455;43.430;23.136;2022-09-09T07:32:22;6.78;;;6.07;;
46721;SDS011;32455;43.430;23.136;2022-09-09T07:35:07;6.57;;;5.38;;
46721;SDS011;32455;43.430;23.136;2022-09-09T07:37:53;9.40;;;6.28;;
46721;SDS011;32455;43.430;23.136;2022-09-09T07:40:38;8.27;;;5.30;;
46721;SDS011;32455;43.430;23.136;2022-09-09T07:43:26;7.05;;;5.68;;
46721;SDS011;32455;43.430;23.136;2022-09-09T07:46:12;7.05;;;6.32;;
46721;SDS011;32455;43.430;23.136;2022-09-09T07:48:59;7.88;;;5.85;;
46721;SDS011;32455;43.430;23.136;2022-09-09T07:51:46;8.68;;;5.63;;
46721;SDS011;32455;43.430;23.136;2022-09-09T07:54:33;6.53;;;5.03;;
46721;SDS011;32455;43.430;23.136;2022-09-09T07:57:18;5.90;;;5.40;;
46721;SDS011;32455;43.430;23.136;2022-09-09T08:00:04;11.02;;;5.68;;
46721;SDS011;32455;43.430;23.136;2022-09-09T08:02:49;8.50;;;5.68;;
46721;SDS011;32455;43.430;23.136;2022-09-09T08:05:35;6.72;;;5.53;;
46721;SDS011;32455;43.430;23.136;2022-09-09T08:08:21;6.03;;;5.43;;
46721;SDS011;32455;43.430;23.136;2022-09-09T08:11:09;5.65;;;5.15;;
46721;SDS011;32455;43.430;23.136;2022-09-09T08:13:59;8.02;;;5.70;;
46721;SDS011;32455;43.430;23.136;2022-09-09T08:16:46;6.55;;;4.97;;
46721;SDS011;32455;43.430;23.136;2022-09-09T08:19:33;7.07;;;5.20;;
46721;SDS011;32455;43.430;23.136;2022-09-09T08:22:21;9.27;;;5.55;;
46721;SDS011;32455;43.430;23.136;2022-09-09T08:25:06;6.32;;;5.50;;
46721;SDS011;32455;43.430;23.136;2022-09-09T08:27:53;6.00;;;5.40;;
46721;SDS011;32455;43.430;23.136;2022-09-09T08:30:38;7.75;;;4.57;;
46721;SDS011;32455;43.430;23.136;2022-09-09T08:33:24;6.70;;;4.95;;
46721;SDS011;32455;43.430;23.136;2022-09-09T08:36:11;5.20;;;4.70;;
46721;SDS011;32455;43.430;23.136;2022-09-09T08:39:08;5.93;;;5.32;;
46721;SDS011;32455;43.430;23.136;2022-09-09T08:47:43;5.85;;;5.10;;
46721;SDS011;32455;43.430;23.136;2022-09-09T08:50:48;4.60;;;4.00;;
46721;SDS011;32455;43.430;23.136;2022-09-09T08:53:46;7.90;;;5.57;;
46721;SDS011;32455;43.430;23.136;2022-09-09T08:56:34;7.32;;;5.40;;
46721;SDS011;32455;43.430;23.136;2022-09-09T08:59:20;5.68;;;4.88;;
46721;SDS011;32455;43.430;23.136;2022-09-09T09:02:15;8.80;;;4.97;;
46721;SDS011;32455;43.430;23.136;2022-09-09T09:05:15;7.00;;;4.68;;
46721;SDS011;32455;43.430;23.136;2022-09-09T09:11:20;6.10;;;5.10;;
46721;SDS011;32455;43.430;23.136;2022-09-09T09:17:02;8.85;;;5.03;;
46721;SDS011;32455;43.430;23.136;2022-09-09T09:19:51;6.25;;;5.10;;
46721;SDS011;32455;43.430;23.136;2022-09-09T09:25:35;10.70;;;5.18;;
46721;SDS011;32455;43.430;23.136;2022-09-09T09:28:25;7.40;;;5.22;;
46721;SDS011;32455;43.430;23.136;2022-09-09T09:31:15;13.60;;;5.38;;
46721;SDS011;32455;43.430;23.136;2022-09-09T09:34:03;5.85;;;5.22;;
46721;SDS011;32455;43.430;23.136;2022-09-09T09:36:57;6.25;;;5.30;;
46721;SDS011;32455;43.430;23.136;2022-09-09T09:39:47;6.82;;;5.20;;
46721;SDS011;32455;43.430;23.136;2022-09-09T09:42:33;5.93;;;5.32;;
46721;SDS011;32455;43.430;23.136;2022-09-09T09:45:35;6.68;;;4.88;;
46721;SDS011;32455;43.430;23.136;2022-09-09T09:48:29;6.43;;;5.40;;
46721;SDS011;32455;43.430;23.136;2022-09-09T09:51:22;7.03;;;5.40;;
46721;SDS011;32455;43.430;23.136;2022-09-09T09:57:07;10.50;;;5.50;;
46721;SDS011;32455;43.430;23.136;2022-09-09T10:00:03;8.27;;;5.40;;
46721;SDS011;32455;43.430;23.136;2022-09-09T10:03:00;8.25;;;5.70;;
46721;SDS011;32455;43.430;23.136;2022-09-09T10:05:46;7.03;;;5.45;;
46721;SDS011;32455;43.430;23.136;2022-09-09T10:08:33;6.68;;;5.10;;
46721;SDS011;32455;43.430;23.136;2022-09-09T10:11:37;6.07;;;5.47;;
46721;SDS011;32455;43.430;23.136;2022-09-09T10:14:50;7.35;;;5.45;;
46721;SDS011;32455;43.430;23.136;2022-09-09T10:17:55;7.50;;;5.22;;
46721;SDS011;32455;43.430;23.136;2022-09-09T10:39:15;7.88;;;5.25;;
46721;SDS011;32455;43.430;23.136;2022-09-09T10:42:16;8.73;;;5.75;;
46721;SDS011;32455;43.430;23.136;2022-09-09T10:57:48;8.32;;;5.75;;
46721;SDS011;32455;43.430;23.136;2022-09-09T11:00:39;8.15;;;5.70;;
46721;SDS011;32455;43.430;23.136;2022-09-09T11:03:29;8.52;;;6.25;;
46721;SDS011;32455;43.430;23.136;2022-09-09T11:06:22;8.27;;;5.10;;
46721;SDS011;32455;43.430;23.136;2022-09-09T11:09:15;8.35;;;5.70;;
46721;SDS011;32455;43.430;23.136;2022-09-09T11:28:32;6.93;;;5.80;;
46721;SDS011;32455;43.430;23.136;2022-09-09T11:41:11;6.93;;;6.22;;
46721;SDS011;32455;43.430;23.136;2022-09-09T11:43:58;6.63;;;6.03;;
46721;SDS011;32455;43.430;23.136;2022-09-09T11:46:43;7.07;;;6.38;;
46721;SDS011;32455;43.430;23.136;2022-09-09T11:49:41;6.97;;;6.15;;
46721;SDS011;32455;43.430;23.136;2022-09-09T11:52:41;11.30;;;6.65;;
46721;SDS011;32455;43.430;23.136;2022-09-09T11:55:31;11.02;;;5.88;;
46721;SDS011;32455;43.430;23.136;2022-09-09T11:58:18;8.95;;;6.18;;
46721;SDS011;32455;43.430;23.136;2022-09-09T12:01:26;10.77;;;6.63;;
46721;SDS011;32455;43.430;23.136;2022-09-09T12:04:16;6.07;;;5.47;;
46721;SDS011;32455;43.430;23.136;2022-09-09T12:07:04;6.60;;;5.88;;
